Salem, WV (26426)

19:55:EDT den 21. Oktober 2014 (GMT -0400)
Marshville | Change Station
CLOSE
Current Station
Personlig værstasjon
Location: Salem, WV
Høyde over havet: 1122 ft
Nearby Weather Stations

H.o.h 1122 ft 39.34 °N, 80.52 °W | Updated 11 minutes ago

Overskyet
Overskyet
48.0 °F
Feels Like 48 °F
N
1.7
Vind Variabel Vind from NV

I dag
High -- | Low -- °F
--% Chance of Precip.
I går
High -- | Low -- °F
Precip. -- tommer
7:38 AM 6:34 PM
Minkende sigd, 4% visible
Lufttrykk 29.96 tommer
Sikt 10.0 eng. mil
Skyet Few 1300 ft
For det meste skyet 3300 ft
Overskyet 4300 ft
Nedkjølingseffekt 48 °F
Duggpunkt 45 °F
Fuktighet 89%
Regn 0.74 tommer
Snødybde Not available.
UV 0 av 12
Pollen .60 av 12
Luftkvalitet Not available.
Flu Activity Sporadic
METAR KCKB 212253Z 32010KT 10SM -RA FEW013 BKN033 OVC043 09/08 A2997 RMK AO2 SLP145 T00940078 PNO $

More Conditions Fewer Conditions

Lufttrykk 29.96 tommer
Sikt 10.0 eng. mil
Skyet Few 1300 ft
For det meste skyet 3300 ft
Overskyet 4300 ft
Nedkjølingseffekt 48 °F
Duggpunkt 45 °F
Fuktighet 89%
Regn 0.74 tommer
Snødybde Not available.
UV 0 av 12
Pollen .60 av 12
Luftkvalitet Not available.
Flu Activity Sporadic
METAR KCKB 212253Z 32010KT 10SM -RA FEW013 BKN033 OVC043 09/08 A2997 RMK AO2 SLP145 T00940078 PNO $

More Conditions Fewer Conditions

10-Day Weather Forecast

Almanac

Astronomi

Oct. 21, 2014 Oppgang Nedgang
Virkelig tid 07:38 EDT 18:34 EDT
Tussmørke 07:11 EDT 19:02 EDT
Nautisk skumring 06:39 EDT 19:33 EDT
Astronomisk skumring 06:08 EDT 20:04 EDT
Månen 05:21 EDT 17:27 EDT
Lengde av synlig lys 11h 51m
Dagens lengde
10h 56m
Tomorrow will be 2m 25s shorter.
Minkende sigd, 4% of the Moon is Illuminated
I dag
Minkende sigd
Oct 23
Ny
Oct 30
Første kvarter
Nov 6
Fullmåne
Nov 14
Siste kvarter

Dagens maks og min

State Highs State Lows

Community

WunderPhotos

Upload Photos

1,763,821 photos uploaded!

Nearby

Snødybde

Stasjon Depth Høyde over havet
No new snow has been reported.

Earthquake Activity

By Distance Mag. Time & Date
No recent earthquake activity has been reported nearby.
Minimum magnitude displayed is 2.5.

Coastal Water Temperatures

Sted Temperatur
Ingen stasjoner raporterer

Nearby Weather Stations